Accueil
METAR-TAF:

METAR-TAF

Aéroports :

Aéroport Kingsford-Smith de Sydney

Sydney, Australie

latitude: 33-57S, longitude: 151-11E, altitude: 6 m

Observation

Le bulletin a été fait il y a 21 minutes, à 14:00 UTC
Vent 9 kt de nord
Température 23°C
Humidité 69%
Pression 1016 hPa
Visibilité 10 km ou plus
pas de nuages en-dessous de 1500 mètres et pas de cumulonimbus.

METAR: YSSY 161400Z 01009KT CAVOK 23/17 Q1016 NOSIG

Heure: 01:21 (14:21 UTC)

Prévision

Le bulletin a été fait il y a 3 heures et 15 minutes, à 11:06 UTC
Prévision valable du 16 à 12 UTC au 16 à 24 UTC
Vent 5 kt de nord/nord-ouest
Visibilité 10 km ou plus
pas de nuages en-dessous de 1500 mètres et pas de cumulonimbus.

TAF: YSSY 161106Z 1612/1624 34005KT CAVOK

Observations et prévisions météorologiques de plus de 4000 aéroports (messages METAR et TAF).

Les stations disponibles sont représentées par des disques jaunes et rouges sur la carte.

Passer la souris dessus pour voir le nom de la station.

Cliquer dessus pour voir les observations et prévisions météorologiques.

Pour changer de carte: cliquez sur les boutons verts avec une croix noire pour zoomer, sur le bouton vert avec un tiret pour effectuer un zoom arrière, ou sur les flèches vertes pour les cartes adjacentes.


METAR-TAF: